Yoakum, Texas
Current Conditions -  °F | °C
As of 6:55 PM on Wednesday 17 Dec 2014 (Local Time) from KT20 Reporting Station
Overcast Overcast  
Wind Chill: 58°   Ceiling: 900
Heat Index: 58°   Visibility: 10mi
Dew Point: 56°   Wind: 9mph
Humidity: 91%   Direction: 40°NE
Pressure: 30.06"   Gusts: NA
Location:  29.29°N, 97.15°W
Report Text: KT20 180055Z AUTO 04008KT 10SM OVC009 15/13 A3006 RMK AO2 T01450131
Loading
Personal Weather Stations






























Interactive Weather Map New forecast layout! Learn more

10-Day Weather Forecast

Advertisements
Track Severe Weather on mobile